Time;durP1;ratioP1;P1;durP2;ratioP2;P2;SDS_P1;SDS_P2;PMS_P1;PMS_P2;Temp;Humidity;BMP_temperature;BMP_pressure;BME280_temperature;BME280_humidity;BME280_pressure;Samples;Min_cycle;Max_cycle;Signal;HPM_P1;HPM_P2
2023/07/03 00:01:50;;;;;;;25.45;21.23;;;18.40;99.90;;;;;;5092459;28;20031;-67
2023/07/03 00:04:16;;;;;;;26.38;20.83;;;18.40;99.90;;;;;;5092796;28;20040;-66
2023/07/03 00:06:42;;;;;;;25.95;20.83;;;18.20;99.90;;;;;;5092575;28;20016;-66
2023/07/03 00:09:09;;;;;;;24.73;21.08;;;18.20;99.90;;;;;;5091150;28;20529;-66
2023/07/03 00:11:35;;;;;;;27.27;21.20;;;18.20;99.90;;;;;;5092487;28;20035;-66
2023/07/03 00:14:01;;;;;;;26.48;22.00;;;18.20;99.90;;;;;;5092379;28;20486;-66
2023/07/03 00:16:27;;;;;;;26.67;21.10;;;18.20;99.90;;;;;;5091262;28;20030;-66
2023/07/03 00:18:52;;;;;;;27.45;21.73;;;18.10;99.90;;;;;;5092234;28;20032;-66
2023/07/03 00:21:18;;;;;;;27.48;21.10;;;18.10;99.90;;;;;;5092308;28;20091;-67
2023/07/03 00:23:44;;;;;;;27.38;20.77;;;18.00;99.90;;;;;;5092079;28;20131;-67
2023/07/03 00:26:10;;;;;;;25.67;20.63;;;18.30;99.90;;;;;;5092296;28;20032;-66
2023/07/03 00:28:35;;;;;;;25.10;20.60;;;18.50;99.90;;;;;;5092187;28;20482;-66
2023/07/03 00:31:01;;;;;;;26.02;20.48;;;18.60;99.90;;;;;;5092401;28;20020;-67
2023/07/03 00:33:26;;;;;;;26.17;20.58;;;18.70;99.90;;;;;;5092046;28;20028;-66
2023/07/03 00:35:52;;;;;;;26.80;20.73;;;18.70;99.90;;;;;;5091619;28;20056;-66
2023/07/03 00:38:18;;;;;;;25.95;21.45;;;18.80;99.90;;;;;;5091783;28;20060;-66
2023/07/03 00:40:43;;;;;;;31.20;21.50;;;18.70;99.90;;;;;;5092203;28;20027;-67
2023/07/03 00:43:09;;;;;;;24.83;20.60;;;18.70;99.90;;;;;;5091789;28;20036;-67
2023/07/03 00:45:36;;;;;;;24.30;20.60;;;18.70;99.90;;;;;;5091595;28;20107;-67
2023/07/03 00:48:02;;;;;;;27.02;21.40;;;18.70;99.90;;;;;;5091680;28;20027;-67
2023/07/03 00:50:28;;;;;;;29.75;21.88;;;18.70;99.90;;;;;;5091861;28;20028;-67
2023/07/03 00:52:59;;;;;;;25.88;20.58;;;18.80;99.90;;;;;;5092190;28;20088;-66
2023/07/03 00:55:25;;;;;;;25.20;21.67;;;18.60;99.90;;;;;;5091600;28;20040;-68
2023/07/03 00:57:51;;;;;;;25.45;20.58;;;18.50;99.90;;;;;;5091837;28;20052;-68
2023/07/03 01:00:18;;;;;;;26.45;21.52;;;18.30;99.90;;;;;;5091284;28;20024;-67
2023/07/03 01:03:07;;;;;;;28.20;21.27;;;18.20;99.90;;;;;;5091502;28;20024;-67
2023/07/03 01:05:40;;;;;;;27.27;22.15;;;18.00;99.90;;;;;;5091545;28;20035;-68
2023/07/03 01:08:06;;;;;;;24.75;21.42;;;17.90;99.90;;;;;;5091451;28;20492;-68
2023/07/03 01:10:32;;;;;;;25.35;21.17;;;17.90;99.90;;;;;;5091448;28;20055;-67
2023/07/03 01:13:06;;;;;;;24.67;21.25;;;17.80;99.90;;;;;;5091036;28;20043;-67
2023/07/03 01:15:38;;;;;;;24.88;21.85;;;17.70;99.90;;;;;;5091371;28;20016;-67
2023/07/03 01:18:06;;;;;;;25.83;21.35;;;17.70;99.90;;;;;;5091287;28;20075;-66
2023/07/03 01:20:37;;;;;;;27.75;21.77;;;17.60;99.90;;;;;;5091443;28;20082;-68
2023/07/03 01:23:04;;;;;;;24.77;20.67;;;17.60;99.90;;;;;;5091373;28;20127;-67
2023/07/03 01:25:32;;;;;;;24.33;21.70;;;17.60;99.90;;;;;;5090924;28;20028;-67
2023/07/03 01:28:00;;;;;;;24.23;21.27;;;17.50;99.90;;;;;;5091186;28;20028;-67
2023/07/03 01:30:28;;;;;;;29.10;22.05;;;17.50;99.90;;;;;;5091549;28;20052;-66
2023/07/03 01:32:55;;;;;;;26.73;22.13;;;17.50;99.90;;;;;;5091091;28;20070;-67
2023/07/03 01:35:24;;;;;;;26.40;21.52;;;17.40;99.90;;;;;;5091316;28;20021;-67
2023/07/03 01:37:52;;;;;;;26.33;21.58;;;17.40;99.90;;;;;;5090007;28;20035;-66
2023/07/03 01:40:21;;;;;;;28.30;21.23;;;17.50;99.90;;;;;;5091467;28;20115;-68
2023/07/03 01:42:47;;;;;;;26.65;22.10;;;17.70;99.90;;;;;;5090795;28;20040;-67
2023/07/03 01:45:13;;;;;;;24.20;21.13;;;18.00;99.90;;;;;;5091061;28;20582;-67
2023/07/03 01:47:39;;;;;;;25.02;21.33;;;18.10;99.90;;;;;;5092220;28;20028;-67
2023/07/03 01:50:09;;;;;;;24.77;20.63;;;18.20;99.90;;;;;;5095495;28;20379;-67
2023/07/03 01:52:39;;;;;;;28.33;21.30;;;18.30;99.90;;;;;;5095498;28;20020;-67
2023/07/03 01:55:08;;;;;;;22.67;20.38;;;18.10;99.90;;;;;;5095021;28;20028;-67
2023/07/03 01:57:44;;;;;;;29.13;21.77;;;18.10;99.90;;;;;;5095220;28;20058;-67
2023/07/03 02:00:14;;;;;;;21.90;19.63;;;18.20;99.90;;;;;;5095390;28;20556;-67
2023/07/03 02:02:47;;;;;;;25.05;20.85;;;18.20;99.90;;;;;;5094680;28;20498;-68
2023/07/03 02:05:22;;;;;;;25.25;21.10;;;18.20;99.90;;;;;;5094982;28;20042;-67
2023/07/03 02:07:53;;;;;;;23.98;20.17;;;18.10;99.90;;;;;;5095017;28;20024;-67
2023/07/03 02:10:19;;;;;;;24.85;20.20;;;17.90;99.90;;;;;;5094903;28;20024;-67
2023/07/03 02:12:45;;;;;;;22.67;20.10;;;17.70;99.90;;;;;;5094927;28;20103;-67
2023/07/03 02:15:14;;;;;;;25.33;21.25;;;17.60;99.90;;;;;;5094561;28;20398;-66
2023/07/03 02:17:40;;;;;;;23.73;20.75;;;17.50;99.90;;;;;;5094548;28;20028;-67
2023/07/03 02:20:08;;;;;;;23.20;20.73;;;17.30;99.90;;;;;;5094632;28;20398;-67
2023/07/03 02:22:33;;;;;;;25.48;20.40;;;17.30;99.90;;;;;;5094711;28;20508;-68
2023/07/03 02:24:59;;;;;;;25.95;20.40;;;17.30;99.90;;;;;;5094564;28;20070;-67
2023/07/03 02:27:25;;;;;;;22.55;20.17;;;17.30;99.90;;;;;;5094134;28;20027;-68
2023/07/03 02:29:50;;;;;;;23.77;20.42;;;17.10;99.90;;;;;;5094488;28;20027;-66
2023/07/03 02:32:16;;;;;;;24.50;20.55;;;17.10;99.90;;;;;;5094255;28;20040;-67
2023/07/03 02:34:41;;;;;;;24.13;20.75;;;17.10;99.90;;;;;;5094315;28;20028;-67
2023/07/03 02:37:09;;;;;;;23.27;20.80;;;17.20;99.90;;;;;;5094687;28;20031;-67
2023/07/03 02:39:35;;;;;;;25.40;21.73;;;17.20;99.90;;;;;;5094346;28;20386;-66
2023/07/03 02:42:00;;;;;;;24.25;20.45;;;17.10;99.90;;;;;;5093781;28;20025;-67
2023/07/03 02:44:26;;;;;;;24.17;21.08;;;17.10;99.90;;;;;;5094111;28;20384;-68
2023/07/03 02:46:52;;;;;;;25.60;20.85;;;17.10;99.90;;;;;;5094129;28;20040;-67
2023/07/03 02:49:17;;;;;;;23.75;20.45;;;17.00;99.90;;;;;;5094187;28;20102;-67
2023/07/03 02:51:43;;;;;;;24.55;21.52;;;17.00;99.90;;;;;;5094438;28;20052;-67
2023/07/03 02:54:10;;;;;;;22.70;19.73;;;16.90;99.90;;;;;;5093972;28;20028;-67
2023/07/03 02:56:37;;;;;;;23.48;19.65;;;17.10;99.90;;;;;;5093554;28;20474;-68
2023/07/03 02:59:02;;;;;;;26.25;20.58;;;17.40;99.90;;;;;;5093483;28;20051;-68
2023/07/03 03:01:28;;;;;;;23.05;19.35;;;17.50;99.90;;;;;;5093566;28;20507;-67
2023/07/03 03:03:55;;;;;;;23.77;19.17;;;17.60;99.90;;;;;;5093903;28;20047;-67
2023/07/03 03:06:20;;;;;;;25.17;19.50;;;17.70;99.90;;;;;;5093890;28;20028;-67
2023/07/03 03:08:48;;;;;;;23.23;19.30;;;17.70;99.90;;;;;;5093302;28;20397;-67
2023/07/03 03:11:14;;;;;;;23.67;19.42;;;17.70;99.90;;;;;;5093855;28;20055;-67
2023/07/03 03:13:40;;;;;;;21.90;18.42;;;17.70;99.90;;;;;;5093903;28;20052;-68
2023/07/03 03:16:05;;;;;;;28.05;20.00;;;17.70;99.90;;;;;;5094028;28;20028;-68
2023/07/03 03:18:31;;;;;;;22.63;18.98;;;17.70;99.90;;;;;;5093553;28;20407;-67
2023/07/03 03:20:57;;;;;;;21.58;19.25;;;17.70;99.90;;;;;;5093548;28;20110;-68
2023/07/03 03:23:22;;;;;;;23.27;19.42;;;17.60;99.90;;;;;;5092964;28;20083;-66
2023/07/03 03:25:48;;;;;;;25.65;20.55;;;17.50;99.90;;;;;;5093818;28;20536;-67
2023/07/03 03:28:13;;;;;;;24.60;18.83;;;17.30;99.90;;;;;;5093235;28;20478;-68
2023/07/03 03:30:39;;;;;;;24.30;19.15;;;17.10;99.90;;;;;;5093314;28;20024;-68
2023/07/03 03:33:05;;;;;;;23.45;19.65;;;17.00;99.90;;;;;;5093183;28;20109;-67
2023/07/03 03:35:30;;;;;;;25.60;19.98;;;17.00;99.90;;;;;;5093233;28;20032;-67
2023/07/03 03:37:56;;;;;;;24.98;20.45;;;16.80;99.90;;;;;;5092941;28;20047;-67
2023/07/03 03:40:22;;;;;;;24.38;19.58;;;16.80;99.90;;;;;;5093688;28;20032;-67
2023/07/03 03:42:47;;;;;;;26.83;19.83;;;16.70;99.90;;;;;;5092906;28;20024;-67
2023/07/03 03:45:13;;;;;;;21.95;19.40;;;16.70;99.90;;;;;;5093000;28;20054;-67
2023/07/03 03:47:38;;;;;;;24.25;19.95;;;16.70;99.90;;;;;;5093343;28;20386;-67
2023/07/03 03:50:05;;;;;;;23.13;19.33;;;16.60;99.90;;;;;;5092953;28;20093;-67
2023/07/03 03:52:30;;;;;;;23.92;20.48;;;16.60;99.90;;;;;;5092736;28;20024;-67
2023/07/03 03:54:56;;;;;;;25.83;20.33;;;16.60;99.90;;;;;;5093131;28;20486;-67
2023/07/03 03:57:22;;;;;;;23.00;19.48;;;16.60;99.90;;;;;;5092821;28;20405;-68
2023/07/03 03:59:47;;;;;;;23.15;19.08;;;16.60;99.90;;;;;;5092946;28;20032;-68
2023/07/03 04:02:13;;;;;;;25.27;19.25;;;16.60;99.90;;;;;;5092664;28;20415;-68
2023/07/03 04:04:39;;;;;;;26.05;19.42;;;16.50;99.90;;;;;;5092795;28;20449;-68
2023/07/03 04:07:05;;;;;;;22.45;19.23;;;16.60;99.90;;;;;;5092284;28;20016;-67
2023/07/03 04:09:31;;;;;;;25.25;19.17;;;16.50;99.90;;;;;;5092603;28;20031;-68
2023/07/03 04:11:56;;;;;;;24.10;19.52;;;16.70;99.90;;;;;;5092801;28;20085;-67
2023/07/03 04:14:22;;;;;;;22.50;18.67;;;16.90;99.90;;;;;;5092410;28;20027;-68
2023/07/03 04:16:49;;;;;;;27.17;18.42;;;17.20;99.90;;;;;;5092474;28;20035;-67
2023/07/03 04:19:18;;;;;;;23.17;18.60;;;17.40;99.90;;;;;;5092443;28;20020;-66
2023/07/03 04:21:47;;;;;;;22.58;18.50;;;17.60;99.90;;;;;;5092031;28;20028;-67
2023/07/03 04:24:13;;;;;;;22.27;18.90;;;17.60;99.90;;;;;;5091916;28;20055;-67
2023/07/03 04:26:40;;;;;;;21.92;18.05;;;17.60;99.90;;;;;;5092322;28;20073;-67
2023/07/03 04:29:05;;;;;;;23.13;18.40;;;17.50;99.90;;;;;;5092456;28;20176;-67
2023/07/03 04:31:33;;;;;;;23.27;19.23;;;17.60;99.90;;;;;;5092351;28;20542;-67
2023/07/03 04:33:59;;;;;;;23.60;18.08;;;17.60;99.90;;;;;;5092027;28;20039;-67
2023/07/03 04:36:25;;;;;;;24.98;18.95;;;17.80;99.90;;;;;;5091999;28;20012;-68
2023/07/03 04:38:56;;;;;;;22.55;18.48;;;17.70;99.90;;;;;;5091906;28;20509;-68
2023/07/03 04:41:23;;;;;;;21.58;18.45;;;17.60;99.90;;;;;;5092093;28;20095;-67
2023/07/03 04:43:51;;;;;;;23.10;18.63;;;17.40;99.90;;;;;;5091831;28;20039;-67
2023/07/03 04:46:18;;;;;;;20.77;18.48;;;17.20;99.90;;;;;;5092075;28;20016;-65
2023/07/03 04:48:46;;;;;;;23.75;17.90;;;17.10;99.90;;;;;;5092005;28;20036;-68
2023/07/03 04:51:12;;;;;;;21.38;17.80;;;17.00;99.90;;;;;;5091660;28;20024;-68
2023/07/03 04:53:40;;;;;;;23.58;18.20;;;17.00;99.90;;;;;;5091914;28;20372;-68
2023/07/03 04:56:07;;;;;;;25.67;18.05;;;17.00;99.90;;;;;;5091792;28;20023;-67
2023/07/03 04:58:32;;;;;;;22.67;18.33;;;17.00;99.90;;;;;;5092141;28;20028;-68
2023/07/03 05:00:58;;;;;;;22.77;18.33;;;16.90;99.90;;;;;;5090306;28;20036;-68
2023/07/03 05:03:23;;;;;;;23.58;18.05;;;16.90;99.90;;;;;;5091328;28;20039;-67
2023/07/03 05:05:49;;;;;;;20.67;18.20;;;16.90;99.90;;;;;;5091313;28;20116;-68
2023/07/03 05:08:15;;;;;;;21.50;17.83;;;16.90;99.90;;;;;;5091603;28;20023;-68
2023/07/03 05:10:40;;;;;;;25.42;18.13;;;16.90;99.90;;;;;;5091742;28;20449;-67
2023/07/03 05:13:06;;;;;;;21.13;18.23;;;16.90;99.90;;;;;;5091388;28;20550;-68
2023/07/03 05:15:32;;;;;;;25.05;17.88;;;17.00;99.90;;;;;;5091504;28;20052;-68
2023/07/03 05:17:58;;;;;;;22.98;17.30;;;17.00;99.90;;;;;;5090227;28;20031;-67
2023/07/03 05:20:25;;;;;;;25.98;17.60;;;17.00;99.90;;;;;;5091183;28;20036;-67
2023/07/03 05:22:52;;;;;;;27.40;17.38;;;17.00;99.90;;;;;;5090485;28;20426;-67
2023/07/03 05:25:18;;;;;;;25.65;17.13;;;17.10;99.90;;;;;;5091421;28;20034;-67
2023/07/03 05:27:44;;;;;;;23.88;17.60;;;17.10;99.90;;;;;;5091508;28;20047;-67
2023/07/03 05:30:10;;;;;;;23.73;17.15;;;17.40;99.90;;;;;;5091129;28;20498;-67
2023/07/03 05:32:36;;;;;;;19.98;16.30;;;17.60;99.90;;;;;;5091402;28;20025;-68
2023/07/03 05:35:04;;;;;;;23.17;16.33;;;17.70;99.90;;;;;;5090965;28;20517;-68
2023/07/03 05:37:30;;;;;;;22.77;17.35;;;17.80;99.90;;;;;;5091232;28;20066;-67
2023/07/03 05:39:55;;;;;;;22.67;16.77;;;18.00;99.90;;;;;;5091152;28;20495;-69
2023/07/03 05:42:21;;;;;;;21.90;15.82;;;18.00;99.90;;;;;;5091324;28;20019;-69
2023/07/03 05:44:48;;;;;;;22.88;16.48;;;18.00;99.90;;;;;;5091286;28;20125;-69
2023/07/03 05:47:14;;;;;;;20.92;16.25;;;18.10;99.90;;;;;;5091429;28;20492;-70
2023/07/03 05:49:40;;;;;;;19.08;16.25;;;18.20;99.90;;;;;;5091032;28;20479;-69
2023/07/03 05:52:07;;;;;;;21.27;15.35;;;18.20;99.90;;;;;;5091038;28;20046;-69
2023/07/03 05:54:32;;;;;;;19.90;15.75;;;18.30;99.90;;;;;;5091339;28;20024;-69
2023/07/03 05:57:10;;;;;;;22.98;15.60;;;18.20;99.90;;;;;;5090819;28;20089;-69
2023/07/03 05:59:36;;;;;;;21.65;16.08;;;18.10;99.90;;;;;;5090862;28;20037;-70
2023/07/03 06:02:07;;;;;;;22.85;17.30;;;18.00;99.90;;;;;;5091162;28;20055;-69
2023/07/03 06:04:33;;;;;;;22.88;16.83;;;17.90;99.90;;;;;;5090833;28;20035;-70
2023/07/03 06:07:00;;;;;;;18.58;15.35;;;17.80;99.90;;;;;;5091338;28;20364;-68
2023/07/03 06:09:27;;;;;;;21.25;16.52;;;17.70;99.90;;;;;;5090869;28;20028;-66
2023/07/03 06:11:53;;;;;;;20.45;15.82;;;17.70;99.90;;;;;;5091246;28;20475;-65
2023/07/03 06:14:19;;;;;;;22.58;16.67;;;17.70;99.90;;;;;;5090830;28;20017;-66
2023/07/03 06:16:47;;;;;;;21.40;15.50;;;17.70;99.90;;;;;;5090775;28;20028;-67
2023/07/03 06:19:15;;;;;;;21.13;15.75;;;17.70;99.90;;;;;;5090727;28;20085;-64
2023/07/03 06:21:41;;;;;;;26.65;16.42;;;17.70;99.90;;;;;;5090857;28;20016;-64
2023/07/03 06:24:09;;;;;;;22.45;16.02;;;17.70;99.90;;;;;;5090469;28;20067;-66
2023/07/03 06:26:35;;;;;;;19.58;16.35;;;17.70;99.90;;;;;;5090922;28;20020;-65
2023/07/03 06:29:02;;;;;;;21.38;16.33;;;17.80;99.90;;;;;;5090841;28;20024;-64
2023/07/03 06:31:28;;;;;;;20.85;16.08;;;17.80;99.90;;;;;;5090905;28;20445;-65
2023/07/03 06:33:55;;;;;;;21.38;16.08;;;17.90;99.90;;;;;;5090205;28;20028;-65
2023/07/03 06:36:23;;;;;;;19.20;15.90;;;17.90;99.90;;;;;;5093911;28;20028;-67
2023/07/03 06:38:53;;;;;;;22.75;16.42;;;18.00;99.90;;;;;;5094210;28;20024;-68
2023/07/03 06:41:25;;;;;;;21.83;16.95;;;17.90;99.90;;;;;;5094359;28;20022;-68
2023/07/03 06:43:52;;;;;;;21.63;17.55;;;17.90;99.90;;;;;;5094098;28;20038;-68
2023/07/03 06:46:18;;;;;;;22.58;17.17;;;18.00;99.90;;;;;;5093917;28;20027;-66
2023/07/03 06:48:44;;;;;;;21.40;17.17;;;18.30;99.90;;;;;;5094409;28;20107;-66
2023/07/03 06:51:12;;;;;;;23.92;17.83;;;18.50;99.90;;;;;;5094100;28;20127;-67
2023/07/03 06:53:38;;;;;;;25.35;17.92;;;18.60;99.90;;;;;;5094109;28;20020;-67
2023/07/03 06:56:04;;;;;;;22.55;18.17;;;18.80;99.90;;;;;;5094332;28;20032;-67
2023/07/03 06:58:32;;;;;;;22.73;17.40;;;18.80;99.90;;;;;;5093933;28;20394;-67
2023/07/03 07:00:58;;;;;;;24.10;18.48;;;18.90;99.90;;;;;;5093781;28;20028;-67
2023/07/03 07:03:24;;;;;;;22.40;17.98;;;19.00;99.90;;;;;;5093642;28;20044;-67
2023/07/03 07:05:53;;;;;;;25.35;17.60;;;19.10;99.90;;;;;;5094135;28;20028;-68
2023/07/03 07:08:18;;;;;;;22.42;18.55;;;19.20;99.90;;;;;;5093754;28;20035;-68
2023/07/03 07:10:45;;;;;;;21.90;18.20;;;19.20;99.90;;;;;;5093542;28;20032;-67
2023/07/03 07:13:12;;;;;;;22.58;18.33;;;19.30;99.90;;;;;;5093610;28;20394;-68
2023/07/03 07:15:39;;;;;;;24.67;18.17;;;19.30;99.90;;;;;;5093241;28;20035;-68
2023/07/03 07:18:07;;;;;;;22.13;18.58;;;19.20;99.90;;;;;;5093497;28;20115;-68
2023/07/03 07:20:39;;;;;;;22.02;18.05;;;19.10;99.90;;;;;;5093988;28;20035;-68
2023/07/03 07:23:07;;;;;;;24.90;18.73;;;19.00;99.90;;;;;;5092525;28;20055;-68
2023/07/03 07:25:33;;;;;;;22.85;19.30;;;19.00;99.90;;;;;;5093617;28;20142;-68
2023/07/03 07:27:59;;;;;;;23.17;19.30;;;19.10;99.90;;;;;;5093069;28;20800;-69
2023/07/03 07:30:24;;;;;;;26.58;18.50;;;19.10;99.90;;;;;;5093347;28;20012;-66
2023/07/03 07:32:50;;;;;;;26.02;18.70;;;19.20;99.90;;;;;;5092811;28;20039;-65
2023/07/03 07:35:16;;;;;;;20.55;17.95;;;19.20;99.90;;;;;;5093136;28;20524;-65
2023/07/03 07:37:42;;;;;;;24.55;18.00;;;19.20;99.90;;;;;;5093451;28;20051;-65
2023/07/03 07:40:09;;;;;;;22.65;18.35;;;19.30;99.90;;;;;;5092989;28;20020;-65
2023/07/03 07:42:35;;;;;;;25.27;18.20;;;19.40;99.90;;;;;;5093061;28;20433;-65
2023/07/03 07:45:01;;;;;;;25.00;18.23;;;19.60;99.90;;;;;;5092230;28;20103;-65
2023/07/03 07:47:28;;;;;;;22.45;17.42;;;19.60;99.90;;;;;;5093020;28;20134;-65
2023/07/03 07:49:54;;;;;;;22.88;16.65;;;19.70;99.90;;;;;;5092954;28;20024;-65
2023/07/03 07:52:20;;;;;;;22.52;16.63;;;19.70;99.90;;;;;;5092854;28;20099;-66
2023/07/03 07:54:45;;;;;;;24.58;20.42;;;19.70;99.90;;;;;;5092823;28;20024;-66
2023/07/03 07:57:11;;;;;;;24.90;17.02;;;19.80;99.90;;;;;;5092708;28;20403;-65
2023/07/03 07:59:37;;;;;;;27.38;17.13;;;19.90;99.90;;;;;;5092316;28;20016;-65
2023/07/03 08:02:03;;;;;;;21.17;16.67;;;20.00;99.90;;;;;;5093087;28;20016;-65
2023/07/03 08:04:28;;;;;;;21.35;15.43;;;20.20;99.90;;;;;;5092600;28;20028;-66
2023/07/03 08:06:54;;;;;;;19.77;15.85;;;20.30;99.90;;;;;;5092606;28;20115;-65
2023/07/03 08:09:23;;;;;;;20.85;15.50;;;20.30;99.90;;;;;;5092528;28;20506;-65
2023/07/03 08:11:48;;;;;;;19.45;15.48;;;20.50;99.90;;;;;;5092361;28;20020;-65
2023/07/03 08:14:14;;;;;;;23.45;15.02;;;20.70;99.90;;;;;;5092622;28;20033;-65
2023/07/03 08:16:40;;;;;;;19.83;14.90;;;20.80;99.90;;;;;;5092406;28;20035;-65
2023/07/03 08:19:05;;;;;;;19.80;14.85;;;20.80;99.90;;;;;;5090967;28;20024;-65
2023/07/03 08:21:32;;;;;;;20.48;15.43;;;20.90;99.90;;;;;;5092311;28;20028;-65
2023/07/03 08:23:57;;;;;;;20.45;14.40;;;20.90;99.90;;;;;;5090957;28;20166;-65
2023/07/03 08:26:24;;;;;;;17.95;13.75;;;21.10;99.90;;;;;;5092222;28;20099;-65
2023/07/03 08:28:50;;;;;;;18.98;14.15;;;21.00;99.90;;;;;;5092031;28;20035;-65
2023/07/03 08:31:16;;;;;;;17.27;13.35;;;21.10;99.90;;;;;;5092255;28;20024;-65
2023/07/03 08:33:41;;;;;;;18.77;13.88;;;21.10;99.90;;;;;;5092498;28;20490;-65
2023/07/03 08:36:07;;;;;;;16.30;13.32;;;21.10;99.90;;;;;;5091963;28;20506;-65
2023/07/03 08:38:33;;;;;;;19.38;13.27;;;20.90;99.90;;;;;;5091984;28;20027;-65
2023/07/03 08:41:00;;;;;;;16.33;12.88;;;20.90;99.90;;;;;;5092269;28;20024;-65
2023/07/03 08:43:35;;;;;;;17.23;13.77;;;20.90;99.90;;;;;;5091495;28;20016;-65
2023/07/03 08:46:04;;;;;;;20.38;14.20;;;20.90;99.90;;;;;;5091958;28;20058;-65
2023/07/03 08:48:34;;;;;;;15.98;12.70;;;20.90;99.90;;;;;;5091908;28;20098;-65
2023/07/03 08:51:03;;;;;;;19.63;14.15;;;20.90;99.90;;;;;;5091796;28;20102;-65
2023/07/03 08:53:40;;;;;;;19.40;13.50;;;21.00;99.90;;;;;;5092108;28;20024;-65
2023/07/03 08:56:17;;;;;;;17.85;12.88;;;21.00;99.90;;;;;;5091810;28;20024;-65
2023/07/03 08:58:49;;;;;;;17.42;13.00;;;21.00;99.90;;;;;;5090532;28;20059;-66
2023/07/03 09:01:27;;;;;;;16.10;12.27;;;21.10;99.90;;;;;;5091601;28;20016;-65
2023/07/03 09:04:17;;;;;;;18.75;13.27;;;21.10;99.90;;;;;;5091502;28;20031;-65
2023/07/03 09:06:57;;;;;;;15.32;12.45;;;21.10;99.90;;;;;;5091612;28;20031;-65
2023/07/03 09:09:29;;;;;;;17.67;13.13;;;21.20;99.90;;;;;;5091843;28;20158;-65
2023/07/03 09:12:00;;;;;;;16.42;12.70;;;21.30;99.90;;;;;;5091353;28;20028;-65
2023/07/03 09:14:37;;;;;;;17.42;12.05;;;21.30;99.90;;;;;;5091417;28;20024;-65
2023/07/03 09:17:08;;;;;;;16.48;11.98;;;21.40;99.90;;;;;;5091312;28;20146;-65
2023/07/03 09:19:37;;;;;;;14.98;12.23;;;21.40;99.90;;;;;;5090460;28;20380;-65
2023/07/03 09:22:06;;;;;;;17.60;12.77;;;21.70;99.90;;;;;;5091137;28;20471;-66
2023/07/03 09:24:39;;;;;;;13.85;11.90;;;21.80;99.90;;;;;;5091230;28;20040;-65
2023/07/03 09:27:27;;;;;;;14.45;11.65;;;22.00;99.90;;;;;;5091038;28;20021;-65
2023/07/03 09:29:57;;;;;;;15.15;11.82;;;22.00;99.90;;;;;;5091739;28;20031;-65
2023/07/03 09:32:29;;;;;;;14.98;12.13;;;22.10;99.90;;;;;;5091278;28;20035;-65
2023/07/03 09:35:02;;;;;;;14.38;11.45;;;22.20;99.90;;;;;;5091251;28;20386;-64
2023/07/03 09:37:28;;;;;;;14.65;11.35;;;22.30;99.90;;;;;;5091188;28;20487;-65
2023/07/03 09:39:54;;;;;;;16.52;11.85;;;22.30;99.90;;;;;;5091531;28;20042;-64
2023/07/03 09:42:22;;;;;;;16.02;11.55;;;22.40;99.90;;;;;;5090875;28;20383;-65
2023/07/03 09:44:49;;;;;;;14.68;11.48;;;22.30;99.90;;;;;;5090991;28;20044;-65
2023/07/03 09:47:20;;;;;;;14.50;11.55;;;22.40;99.90;;;;;;5091100;28;20024;-65
2023/07/03 09:49:45;;;;;;;15.43;10.77;;;22.30;99.90;;;;;;5091075;28;20108;-65
2023/07/03 09:52:11;;;;;;;15.75;11.40;;;22.40;99.90;;;;;;5090901;28;20440;-65
2023/07/03 09:54:42;;;;;;;15.32;11.80;;;22.20;99.90;;;;;;5091013;28;20030;-65
2023/07/03 09:57:19;;;;;;;12.25;10.27;;;22.10;99.90;;;;;;5091483;28;20077;-65
2023/07/03 09:59:45;;;;;;;15.18;10.85;;;22.10;99.90;;;;;;5090938;28;20069;-65
2023/07/03 10:02:11;;;;;;;13.80;11.00;;;22.10;99.90;;;;;;5090892;28;20028;-65
2023/07/03 10:04:45;;;;;;;14.13;11.15;;;22.00;99.90;;;;;;5090964;28;20395;-65
2023/07/03 10:07:14;;;;;;;12.52;10.55;;;22.10;99.90;;;;;;5090877;28;20491;-67
2023/07/03 10:09:42;;;;;;;13.82;10.73;;;22.10;99.90;;;;;;5093473;28;20444;-65
2023/07/03 10:12:17;;;;;;;17.38;11.32;;;22.20;99.90;;;;;;5094676;28;20030;-65
2023/07/03 10:14:58;;;;;;;14.30;11.20;;;22.10;99.90;;;;;;5094885;28;20111;-65
2023/07/03 10:17:33;;;;;;;16.63;11.38;;;22.30;99.90;;;;;;5094575;28;20028;-65
2023/07/03 10:20:09;;;;;;;15.77;11.43;;;22.20;99.90;;;;;;5094994;28;20012;-65
2023/07/03 10:22:37;;;;;;;16.25;11.82;;;22.30;99.90;;;;;;5094289;28;20067;-65
2023/07/03 10:25:07;;;;;;;14.02;11.23;;;22.50;99.90;;;;;;5094344;28;20036;-67
2023/07/03 10:27:36;;;;;;;15.98;11.25;;;22.60;99.90;;;;;;5094914;28;20043;-65
2023/07/03 10:30:04;;;;;;;14.15;11.18;;;22.60;99.90;;;;;;5094522;28;20032;-66
2023/07/03 10:32:33;;;;;;;14.90;11.73;;;22.70;99.90;;;;;;5094481;28;20028;-65
2023/07/03 10:35:22;;;;;;;15.95;10.65;;;22.70;99.90;;;;;;5094538;28;20024;-65
2023/07/03 10:37:59;;;;;;;14.20;10.98;;;22.80;99.90;;;;;;5094331;28;20382;-64
2023/07/03 10:40:56;;;;;;;14.18;10.98;;;23.00;99.90;;;;;;5094156;28;20032;-64
2023/07/03 10:43:25;;;;;;;13.88;10.60;;;23.00;99.90;;;;;;5089705;28;20051;-65
2023/07/03 10:45:52;;;;;;;13.30;10.30;;;23.10;99.90;;;;;;5094241;28;20016;-64
2023/07/03 10:48:26;;;;;;;14.05;10.60;;;23.20;99.90;;;;;;5094308;28;20521;-65
2023/07/03 10:50:59;;;;;;;14.48;10.52;;;23.30;99.90;;;;;;5094035;28;20077;-65
2023/07/03 10:53:36;;;;;;;14.85;10.20;;;23.40;99.90;;;;;;5093662;28;20553;-65
2023/07/03 10:56:16;;;;;;;12.43;10.60;;;23.60;99.90;;;;;;5094134;28;20509;-65
2023/07/03 10:58:52;;;;;;;14.38;10.95;;;23.60;99.90;;;;;;5094343;28;20024;-65
2023/07/03 11:01:30;;;;;;;14.75;10.75;;;23.80;99.90;;;;;;5092621;28;20058;-64
2023/07/03 11:04:22;;;;;;;14.32;10.48;;;23.70;99.90;;;;;;5093805;28;20051;-65
2023/07/03 11:06:50;;;;;;;15.88;11.27;;;23.80;99.90;;;;;;5093266;28;20119;-65
2023/07/03 11:09:38;;;;;;;16.55;11.05;;;23.90;99.90;;;;;;5093465;28;20028;-65
2023/07/03 11:12:04;;;;;;;15.77;11.30;;;24.00;99.90;;;;;;5093857;28;20035;-65
2023/07/03 11:14:48;;;;;;;13.25;11.05;;;24.20;99.90;;;;;;5093733;28;20028;-65
2023/07/03 11:17:26;;;;;;;16.77;11.88;;;24.00;99.90;;;;;;5093851;28;20019;-65
2023/07/03 11:20:12;;;;;;;16.55;11.27;;;23.80;99.90;;;;;;5092989;28;20036;-65
2023/07/03 11:22:53;;;;;;;15.63;11.70;;;23.70;99.90;;;;;;5092805;28;20097;-65
2023/07/03 11:25:34;;;;;;;18.35;11.57;;;23.60;99.90;;;;;;5093394;28;20465;-65
2023/07/03 11:28:18;;;;;;;15.02;11.27;;;23.40;99.90;;;;;;5093313;28;20020;-65
2023/07/03 11:30:44;;;;;;;17.08;12.15;;;23.40;99.90;;;;;;5093269;28;20035;-65
2023/07/03 11:33:14;;;;;;;15.82;11.70;;;23.30;99.90;;;;;;5093591;28;20064;-65
2023/07/03 11:35:54;;;;;;;18.75;12.10;;;23.30;99.90;;;;;;5093182;28;20065;-65
2023/07/03 11:38:21;;;;;;;16.00;11.52;;;23.30;99.90;;;;;;5092950;28;20097;-65
2023/07/03 11:40:55;;;;;;;15.63;11.70;;;23.20;99.90;;;;;;5093238;28;20104;-64
2023/07/03 11:43:28;;;;;;;16.08;11.38;;;23.10;99.90;;;;;;5092835;28;20567;-63
2023/07/03 11:45:56;;;;;;;15.05;11.68;;;23.00;99.90;;;;;;5093060;28;20040;-64
2023/07/03 11:48:37;;;;;;;17.95;11.40;;;23.10;99.90;;;;;;5093209;28;20034;-63
2023/07/03 11:51:05;;;;;;;19.60;12.15;;;23.10;99.90;;;;;;5092675;28;20028;-64
2023/07/03 11:53:39;;;;;;;16.10;10.75;;;23.30;99.90;;;;;;5092765;28;20024;-64
2023/07/03 11:56:10;;;;;;;14.82;9.50;;;23.70;99.90;;;;;;5092923;28;20055;-63
2023/07/03 11:58:37;;;;;;;11.82;9.27;;;23.70;99.90;;;;;;5091579;28;20027;-63
2023/07/03 12:01:32;;;;;;;16.75;9.30;;;23.70;99.90;;;;;;5093202;28;20034;-63
2023/07/03 12:04:02;;;;;;;13.70;9.25;;;23.80;99.90;;;;;;5090357;28;20079;-64
2023/07/03 12:06:40;;;;;;;13.32;9.43;;;23.80;99.90;;;;;;5092717;28;20073;-66
2023/07/03 12:09:21;;;;;;;12.57;8.95;;;24.00;99.90;;;;;;5092679;28;20028;-63
2023/07/03 12:12:06;;;;;;;14.27;8.70;;;24.00;99.90;;;;;;5092510;28;20016;-64
2023/07/03 12:14:52;;;;;;;11.93;8.30;;;24.00;99.90;;;;;;5092534;28;20032;-64
2023/07/03 12:17:18;;;;;;;12.07;8.90;;;24.00;99.90;;;;;;5092479;28;20035;-64
2023/07/03 12:19:44;;;;;;;12.75;7.57;;;24.00;99.90;;;;;;5092190;28;20027;-63
2023/07/03 12:22:20;;;;;;;11.65;7.72;;;24.00;99.90;;;;;;5092132;28;20114;-64
2023/07/03 12:24:46;;;;;;;10.98;7.53;;;24.10;99.90;;;;;;5092193;28;20036;-64
2023/07/03 12:27:14;;;;;;;12.15;8.02;;;24.20;99.90;;;;;;5092680;28;20051;-63
2023/07/03 12:29:48;;;;;;;11.95;7.82;;;24.40;99.90;;;;;;5092233;28;20031;-64
2023/07/03 12:32:24;;;;;;;9.52;6.63;;;24.40;99.90;;;;;;5090748;28;20020;-62
2023/07/03 12:34:50;;;;;;;13.02;7.22;;;24.50;99.90;;;;;;5091268;28;20024;-61
2023/07/03 12:37:20;;;;;;;12.02;6.97;;;24.40;99.90;;;;;;5092091;28;20036;-60